createdAt,value
2023-02-03T00:01:37.874Z,6.00
2023-02-03T00:04:04.880Z,6.00
2023-02-03T00:06:32.603Z,6.00
2023-02-03T00:09:02.644Z,6.00
2023-02-03T00:11:32.667Z,6.00
2023-02-03T00:13:59.916Z,6.00
2023-02-03T00:16:29.315Z,6.00
2023-02-03T00:18:56.591Z,6.00
2023-02-03T00:21:23.418Z,6.00
2023-02-03T00:23:50.422Z,6.00
2023-02-03T00:26:18.458Z,6.00
2023-02-03T00:28:46.197Z,6.00
2023-02-03T00:31:20.976Z,6.00
2023-02-03T00:33:57.521Z,5.90
2023-02-03T00:36:25.837Z,5.90
2023-02-03T00:38:53.232Z,5.90
2023-02-03T00:41:20.783Z,5.90
2023-02-03T00:43:48.404Z,5.90
2023-02-03T00:46:17.698Z,5.90
2023-02-03T00:48:44.512Z,5.90
2023-02-03T00:51:12.624Z,5.80
2023-02-03T00:53:39.476Z,5.80
2023-02-03T00:56:12.624Z,5.80
2023-02-03T00:58:40.738Z,5.80
2023-02-03T01:01:12.369Z,5.80
2023-02-03T01:03:39.425Z,5.80
2023-02-03T01:06:18.741Z,5.70
2023-02-03T01:08:49.746Z,5.70
2023-02-03T01:11:21.507Z,5.70
2023-02-03T01:13:52.872Z,5.70
2023-02-03T01:16:23.883Z,5.70
2023-02-03T01:18:54.831Z,5.70
2023-02-03T01:21:26.065Z,5.80
2023-02-03T01:23:57.118Z,5.80
2023-02-03T01:26:26.745Z,5.80
2023-02-03T01:29:00.209Z,5.90
2023-02-03T01:31:35.395Z,5.90
2023-02-03T01:34:03.033Z,5.90
2023-02-03T01:36:31.838Z,5.90
2023-02-03T01:38:58.844Z,6.00
2023-02-03T01:41:31.846Z,6.00
2023-02-03T01:44:00.905Z,6.00
2023-02-03T01:46:36.425Z,6.10
2023-02-03T01:49:20.219Z,6.10
2023-02-03T01:51:49.879Z,6.10
2023-02-03T01:54:19.163Z,6.10
2023-02-03T01:56:51.621Z,6.00
2023-02-03T01:59:20.003Z,6.10
2023-02-03T02:01:47.190Z,6.10
2023-02-03T02:04:14.261Z,6.10
2023-02-03T02:06:43.649Z,6.10
2023-02-03T02:09:12.575Z,6.10
2023-02-03T02:11:42.228Z,6.10
2023-02-03T02:14:09.266Z,6.10
2023-02-03T02:17:01.991Z,6.10
2023-02-03T02:20:06.687Z,6.10
2023-02-03T02:22:42.535Z,6.20
2023-02-03T02:25:33.678Z,6.10
2023-02-03T02:28:12.636Z,6.10
2023-02-03T02:31:03.619Z,6.20
2023-02-03T02:33:39.703Z,6.20
2023-02-03T02:36:26.845Z,6.20
2023-02-03T02:39:07.664Z,6.20
2023-02-03T02:41:52.392Z,6.20
2023-02-03T02:44:26.635Z,6.30
2023-02-03T02:47:00.486Z,6.30
2023-02-03T02:49:35.391Z,6.20
2023-02-03T02:52:05.554Z,6.20
2023-02-03T02:54:38.423Z,6.20
2023-02-03T02:57:09.798Z,6.20
2023-02-03T02:59:36.702Z,6.20
2023-02-03T03:02:04.012Z,6.20
2023-02-03T03:04:32.314Z,6.20
2023-02-03T03:07:16.404Z,6.10
2023-02-03T03:09:48.511Z,6.10
2023-02-03T03:12:21.711Z,6.10
2023-02-03T03:14:56.391Z,6.10
2023-02-03T03:17:30.910Z,6.10
2023-02-03T03:20:06.664Z,6.10
2023-02-03T03:22:42.231Z,6.10
2023-02-03T03:25:24.398Z,6.10
2023-02-03T03:27:58.635Z,6.10
2023-02-03T03:30:34.586Z,6.10
2023-02-03T03:33:02.458Z,6.10
2023-02-03T03:35:55.834Z,6.10
2023-02-03T03:38:41.553Z,6.10
2023-02-03T03:41:16.931Z,6.20
2023-02-03T03:43:47.294Z,6.20
2023-02-03T03:46:29.064Z,6.20
2023-02-03T03:49:03.200Z,6.20
2023-02-03T03:51:30.254Z,6.20
2023-02-03T03:54:00.643Z,6.20
2023-02-03T03:56:34.465Z,6.20
2023-02-03T03:59:03.968Z,6.20
2023-02-03T04:01:32.435Z,6.20
2023-02-03T04:04:03.439Z,6.20
2023-02-03T04:06:35.176Z,6.20
2023-02-03T04:09:03.032Z,6.10
2023-02-03T04:11:51.014Z,6.10
2023-02-03T04:14:20.574Z,6.10
2023-02-03T04:16:47.454Z,6.20
2023-02-03T04:19:14.290Z,6.20
2023-02-03T04:21:41.196Z,6.20
2023-02-03T04:24:08.184Z,6.20
2023-02-03T04:26:37.515Z,6.20
2023-02-03T04:29:05.528Z,6.20
2023-02-03T04:31:32.477Z,6.30
2023-02-03T04:33:59.461Z,6.30
2023-02-03T04:36:26.755Z,6.30
2023-02-03T04:38:56.074Z,6.20
2023-02-03T04:41:25.295Z,6.20
2023-02-03T04:43:52.512Z,6.20
2023-02-03T04:46:19.772Z,6.20
2023-02-03T04:48:46.648Z,6.20
2023-02-03T04:51:13.574Z,6.20
2023-02-03T04:53:40.599Z,6.20
2023-02-03T04:56:07.664Z,6.20
2023-02-03T04:58:34.528Z,6.20
2023-02-03T05:01:08.674Z,6.20
2023-02-03T05:03:36.224Z,6.20
2023-02-03T05:06:03.482Z,6.20
2023-02-03T05:08:33.135Z,6.20
2023-02-03T05:11:02.004Z,6.20
2023-02-03T05:13:29.363Z,6.30
2023-02-03T05:15:58.545Z,6.30
2023-02-03T05:18:25.458Z,6.20
2023-02-03T05:20:54.816Z,6.20
2023-02-03T05:23:21.925Z,6.20
2023-02-03T05:25:49.268Z,6.10
2023-02-03T05:28:16.361Z,6.00
2023-02-03T05:30:43.345Z,6.00
2023-02-03T05:33:10.292Z,5.90
2023-02-03T05:35:38.510Z,5.90
2023-02-03T05:38:08.184Z,5.90
2023-02-03T05:40:59.039Z,5.90
2023-02-03T05:43:26.950Z,6.00
2023-02-03T05:45:57.520Z,6.00
2023-02-03T05:48:24.421Z,6.00
2023-02-03T05:50:51.352Z,6.00
2023-02-03T05:53:18.276Z,6.10
2023-02-03T05:55:46.207Z,6.10
2023-02-03T05:58:13.188Z,6.10
2023-02-03T06:00:42.333Z,6.10
2023-02-03T06:03:09.467Z,6.10
2023-02-03T06:05:41.278Z,6.10
2023-02-03T06:08:08.859Z,6.10
2023-02-03T06:10:36.000Z,6.10
2023-02-03T06:13:14.314Z,6.10
2023-02-03T06:15:44.317Z,6.10
2023-02-03T06:18:13.305Z,6.10
2023-02-03T06:20:42.738Z,6.10
2023-02-03T06:23:09.740Z,6.10
2023-02-03T06:25:39.164Z,6.10
2023-02-03T06:28:06.183Z,6.10
2023-02-03T06:30:35.343Z,6.10
2023-02-03T06:33:02.353Z,6.10
2023-02-03T06:35:29.361Z,6.00
2023-02-03T06:37:56.276Z,6.00
2023-02-03T06:40:23.179Z,6.00
2023-02-03T06:42:53.344Z,6.10
2023-02-03T06:45:20.294Z,6.00
2023-02-03T06:47:51.395Z,6.00
2023-02-03T06:50:18.582Z,6.10
2023-02-03T06:52:48.919Z,6.10
2023-02-03T06:55:15.918Z,6.00
2023-02-03T06:57:47.181Z,6.00
2023-02-03T07:00:18.587Z,6.00
2023-02-03T07:02:46.828Z,6.00
2023-02-03T07:05:15.841Z,6.00
2023-02-03T07:07:42.724Z,6.00
2023-02-03T07:10:10.268Z,6.00
2023-02-03T07:12:39.852Z,6.00
2023-02-03T07:15:07.106Z,6.00
2023-02-03T07:17:36.310Z,6.00
2023-02-03T07:20:04.550Z,6.10
2023-02-03T07:22:33.665Z,6.10
2023-02-03T07:25:00.564Z,6.10
2023-02-03T07:27:28.252Z,6.10
2023-02-03T07:29:55.149Z,6.20
2023-02-03T07:32:21.977Z,6.20
2023-02-03T07:34:48.917Z,6.30
2023-02-03T07:37:18.048Z,6.30
2023-02-03T07:39:47.161Z,6.40
2023-02-03T07:42:14.009Z,6.40
2023-02-03T07:44:45.018Z,6.50
2023-02-03T07:47:16.726Z,6.50
2023-02-03T07:49:45.736Z,6.50
2023-02-03T07:52:12.631Z,6.60
2023-02-03T07:54:39.769Z,6.80
2023-02-03T07:57:06.922Z,6.90
2023-02-03T07:59:35.983Z,6.90
2023-02-03T08:02:02.843Z,6.90
2023-02-03T08:04:29.882Z,6.90
2023-02-03T08:06:56.925Z,6.80
2023-02-03T08:09:23.869Z,6.80
2023-02-03T08:11:50.724Z,6.80
2023-02-03T08:14:17.621Z,6.80
2023-02-03T08:16:47.651Z,6.80
2023-02-03T08:19:14.694Z,6.70
2023-02-03T08:21:44.981Z,6.70
2023-02-03T08:24:11.996Z,6.70
2023-02-03T08:26:41.186Z,6.70
2023-02-03T08:29:12.425Z,6.80
2023-02-03T08:31:42.309Z,6.90
2023-02-03T08:34:09.416Z,7.00
2023-02-03T08:36:39.332Z,7.10
2023-02-03T08:39:09.352Z,7.20
2023-02-03T08:41:38.347Z,7.20
2023-02-03T08:44:05.476Z,7.20
2023-02-03T08:46:33.181Z,7.20
2023-02-03T08:49:03.625Z,7.30
2023-02-03T08:51:30.527Z,7.30
2023-02-03T08:53:57.562Z,7.30
2023-02-03T08:56:26.394Z,7.30
2023-02-03T08:58:55.688Z,7.30
2023-02-03T09:01:25.343Z,7.30
2023-02-03T09:03:52.295Z,7.40
2023-02-03T09:06:23.797Z,7.50
2023-02-03T09:08:53.318Z,7.50
2023-02-03T09:11:23.063Z,7.50
2023-02-03T09:13:50.167Z,7.60
2023-02-03T09:16:26.007Z,7.50
2023-02-03T09:18:52.973Z,7.70
2023-02-03T09:21:32.001Z,7.80
2023-02-03T09:24:04.480Z,8.00
2023-02-03T09:26:31.473Z,8.10
2023-02-03T09:28:58.533Z,8.10
2023-02-03T09:31:25.501Z,8.20
2023-02-03T09:33:52.443Z,8.00
2023-02-03T09:36:23.838Z,8.10
2023-02-03T09:38:50.764Z,8.10
2023-02-03T09:41:35.606Z,8.10
2023-02-03T09:44:25.535Z,8.10
2023-02-03T09:47:00.341Z,8.00
2023-02-03T09:49:37.935Z,8.10
2023-02-03T09:52:09.970Z,8.20
2023-02-03T09:54:52.823Z,8.20
2023-02-03T09:57:23.751Z,8.30
2023-02-03T09:59:51.889Z,8.40
2023-02-03T10:03:04.987Z,8.60
2023-02-03T10:05:50.443Z,8.80
2023-02-03T10:08:51.877Z,9.20
2023-02-03T10:11:24.249Z,9.20
2023-02-03T10:14:06.351Z,9.40
2023-02-03T10:17:01.655Z,9.40
2023-02-03T10:19:46.675Z,9.50
2023-02-03T10:22:26.093Z,9.50
2023-02-03T10:24:58.453Z,9.50
2023-02-03T10:27:25.922Z,9.60
2023-02-03T10:30:22.208Z,9.50
2023-02-03T10:33:00.436Z,9.50
2023-02-03T10:35:41.521Z,9.60
2023-02-03T10:38:15.479Z,9.80
2023-02-03T10:40:42.425Z,10.00
2023-02-03T10:43:30.567Z,10.00
2023-02-03T10:46:00.963Z,9.80
2023-02-03T10:48:30.356Z,9.70
2023-02-03T10:50:58.179Z,9.80
2023-02-03T10:53:32.472Z,9.70
2023-02-03T10:56:05.412Z,9.40
2023-02-03T10:58:38.090Z,9.30
2023-02-03T11:01:11.191Z,9.10
2023-02-03T11:03:41.521Z,9.10
2023-02-03T11:06:20.429Z,8.90
2023-02-03T11:08:51.753Z,8.80
2023-02-03T11:11:28.870Z,8.60
2023-02-03T11:14:10.076Z,8.50
2023-02-03T11:16:39.614Z,8.60
2023-02-03T11:19:22.826Z,8.80
2023-02-03T11:21:55.986Z,9.00
2023-02-03T11:24:24.333Z,9.20
2023-02-03T11:26:55.803Z,9.40
2023-02-03T11:29:29.655Z,9.60
2023-02-03T11:32:02.757Z,9.40
2023-02-03T11:34:38.390Z,9.30
2023-02-03T11:37:27.444Z,9.20
2023-02-03T11:40:12.541Z,9.20
2023-02-03T11:42:44.568Z,8.90
2023-02-03T11:45:34.604Z,8.80
2023-02-03T11:48:04.363Z,8.70
2023-02-03T11:50:43.709Z,8.80
2023-02-03T11:53:39.598Z,8.80
2023-02-03T11:56:34.218Z,9.00
2023-02-03T11:59:21.054Z,8.90
2023-02-03T12:02:06.942Z,8.80
2023-02-03T12:05:01.115Z,8.70
2023-02-03T12:07:56.189Z,8.50
2023-02-03T12:10:35.873Z,8.50
2023-02-03T12:13:35.543Z,8.50
2023-02-03T12:16:15.464Z,8.40
2023-02-03T12:19:10.223Z,8.40
2023-02-03T12:21:45.698Z,8.50
2023-02-03T12:24:43.546Z,8.50
2023-02-03T12:27:35.099Z,8.50
2023-02-03T12:30:16.634Z,8.50
2023-02-03T12:32:52.248Z,8.50
2023-02-03T12:35:35.962Z,8.40
2023-02-03T12:38:10.443Z,8.40
2023-02-03T12:41:01.478Z,8.40
2023-02-03T12:43:43.932Z,8.70
2023-02-03T12:46:24.743Z,8.60
2023-02-03T12:48:56.364Z,8.70
2023-02-03T12:51:51.897Z,8.60
2023-02-03T12:54:46.268Z,8.60
2023-02-03T12:57:38.253Z,8.60
2023-02-03T13:00:18.399Z,8.70
2023-02-03T13:03:12.196Z,8.70
2023-02-03T13:05:45.129Z,8.70
2023-02-03T13:08:24.212Z,8.60
2023-02-03T13:11:15.757Z,8.40
2023-02-03T13:13:52.410Z,8.30
2023-02-03T13:16:34.161Z,8.20
2023-02-03T13:19:11.474Z,8.10
2023-02-03T13:21:41.929Z,8.00
2023-02-03T13:24:11.850Z,8.00
2023-02-03T13:26:50.804Z,8.00
2023-02-03T13:29:45.701Z,8.00
2023-02-03T13:32:34.868Z,8.00
2023-02-03T13:35:32.267Z,8.00
2023-02-03T13:38:16.537Z,8.00
2023-02-03T13:41:01.573Z,8.10
2023-02-03T13:43:38.669Z,8.10
2023-02-03T13:46:20.870Z,8.10
2023-02-03T13:48:48.150Z,8.00
2023-02-03T13:51:18.395Z,8.10
2023-02-03T13:53:47.302Z,8.10
2023-02-03T13:56:23.637Z,8.00
2023-02-03T13:59:13.885Z,8.00
2023-02-03T14:01:44.522Z,8.10
2023-02-03T14:04:26.687Z,8.10
2023-02-03T14:06:53.561Z,8.20
2023-02-03T14:09:31.676Z,8.10
2023-02-03T14:12:22.052Z,8.10
2023-02-03T14:14:51.929Z,8.00
2023-02-03T14:17:48.035Z,8.00
2023-02-03T14:20:27.044Z,8.00
2023-02-03T14:23:05.269Z,8.10
2023-02-03T14:25:52.109Z,8.00
2023-02-03T14:28:25.205Z,8.00
2023-02-03T14:31:12.261Z,8.00
2023-02-03T14:33:49.808Z,8.00
2023-02-03T14:36:30.898Z,8.00
2023-02-03T14:39:23.678Z,8.00
2023-02-03T14:42:05.027Z,8.00
2023-02-03T14:44:55.120Z,8.00
2023-02-03T14:47:34.182Z,8.00
2023-02-03T14:50:19.980Z,8.00
2023-02-03T14:52:58.129Z,8.00
2023-02-03T14:55:30.979Z,7.90
2023-02-03T14:58:05.203Z,8.00
2023-02-03T15:00:35.299Z,8.00
2023-02-03T15:03:11.135Z,7.90
2023-02-03T15:05:41.042Z,7.90
2023-02-03T15:08:30.005Z,7.90
2023-02-03T15:10:57.356Z,8.00
2023-02-03T15:13:25.542Z,8.00
2023-02-03T15:16:04.769Z,8.00
2023-02-03T15:18:36.792Z,7.90
2023-02-03T15:21:05.435Z,7.90
2023-02-03T15:23:47.924Z,7.80
2023-02-03T15:26:26.212Z,7.80
2023-02-03T15:28:58.425Z,7.80
2023-02-03T15:31:33.996Z,7.70
2023-02-03T15:34:28.130Z,7.70
2023-02-03T15:37:03.031Z,7.70
2023-02-03T15:39:46.012Z,7.60
2023-02-03T15:42:36.903Z,7.60
2023-02-03T15:45:29.708Z,7.60
2023-02-03T15:48:17.900Z,7.60
2023-02-03T15:50:58.271Z,7.60
2023-02-03T15:53:46.732Z,7.60
2023-02-03T15:56:22.411Z,7.60
2023-02-03T15:58:50.070Z,7.50
2023-02-03T16:01:21.529Z,7.50
2023-02-03T16:03:54.310Z,7.60
2023-02-03T16:06:21.316Z,7.50
2023-02-03T16:08:49.395Z,7.40
2023-02-03T16:11:23.443Z,7.50
2023-02-03T16:13:51.120Z,7.40
2023-02-03T16:16:23.603Z,7.50
2023-02-03T16:19:00.411Z,7.50
2023-02-03T16:21:31.958Z,7.50
2023-02-03T16:23:59.718Z,7.50
2023-02-03T16:26:28.821Z,7.50
2023-02-03T16:29:26.462Z,7.50
2023-02-03T16:32:13.813Z,7.40
2023-02-03T16:34:59.378Z,7.50
2023-02-03T16:37:49.050Z,7.40
2023-02-03T16:40:40.568Z,7.40
2023-02-03T16:43:33.869Z,7.40
2023-02-03T16:46:20.051Z,7.40
2023-02-03T16:49:05.813Z,7.40
2023-02-03T16:51:42.688Z,7.40
2023-02-03T16:54:14.550Z,7.30
2023-02-03T16:56:41.824Z,7.30
2023-02-03T16:59:09.333Z,7.30
2023-02-03T17:01:36.564Z,7.30
2023-02-03T17:04:04.139Z,7.30
2023-02-03T17:06:33.551Z,7.30
2023-02-03T17:09:03.051Z,7.20
2023-02-03T17:11:30.326Z,7.20
2023-02-03T17:13:59.533Z,7.30
2023-02-03T17:16:28.080Z,7.20
2023-02-03T17:18:57.184Z,7.30
2023-02-03T17:21:29.045Z,7.30
2023-02-03T17:23:58.955Z,7.30
2023-02-03T17:26:25.853Z,7.30
2023-02-03T17:28:52.830Z,7.30
2023-02-03T17:31:22.206Z,7.30
2023-02-03T17:33:52.915Z,7.30
2023-02-03T17:36:23.335Z,7.30
2023-02-03T17:55:33.816Z,7.30
2023-02-03T17:58:01.219Z,7.30
2023-02-03T18:00:28.326Z,7.30
2023-02-03T18:02:56.119Z,7.30
2023-02-03T18:05:23.950Z,7.30
2023-02-03T18:07:51.033Z,7.30
2023-02-03T18:10:18.083Z,7.20
2023-02-03T18:12:45.229Z,7.20
2023-02-03T18:15:12.249Z,7.20
2023-02-03T18:17:39.336Z,7.20
2023-02-03T18:20:09.253Z,7.20
2023-02-03T18:22:36.805Z,7.20
2023-02-03T18:25:03.962Z,7.20
2023-02-03T18:27:30.983Z,7.20
2023-02-03T18:30:00.281Z,7.20
2023-02-03T18:32:30.357Z,7.10
2023-02-03T18:34:57.318Z,7.10
2023-02-03T18:37:30.074Z,7.10
2023-02-03T18:39:57.074Z,7.00
2023-02-03T18:42:24.208Z,7.00
2023-02-03T18:44:51.216Z,7.00
2023-02-03T18:47:20.774Z,7.00
2023-02-03T18:49:49.840Z,6.90
2023-02-03T18:52:16.812Z,7.00
2023-02-03T18:54:46.469Z,6.90
2023-02-03T18:57:15.482Z,6.90
2023-02-03T18:59:44.588Z,6.90
2023-02-03T19:02:14.611Z,6.90
2023-02-03T19:04:46.315Z,6.90
2023-02-03T19:07:15.318Z,6.80
2023-02-03T19:09:44.893Z,6.80
2023-02-03T19:12:12.652Z,6.80
2023-02-03T19:14:42.097Z,6.80
2023-02-03T19:17:10.382Z,6.80
2023-02-03T19:19:37.436Z,6.80
2023-02-03T19:22:06.710Z,6.80
2023-02-03T19:24:33.859Z,6.80
2023-02-03T19:27:03.020Z,6.80
2023-02-03T19:29:29.868Z,6.80
2023-02-03T19:31:59.075Z,6.80
2023-02-03T19:34:27.606Z,6.80
2023-02-03T19:36:55.399Z,6.80
2023-02-03T19:39:22.351Z,6.80
2023-02-03T19:41:49.342Z,6.80
2023-02-03T19:44:24.053Z,6.80
2023-02-03T19:46:56.019Z,6.80
2023-02-03T19:49:25.492Z,6.80
2023-02-03T19:51:54.958Z,6.80
2023-02-03T19:54:24.310Z,6.80
2023-02-03T19:56:53.336Z,6.80
2023-02-03T19:59:20.310Z,6.80
2023-02-03T20:01:49.185Z,6.80
2023-02-03T20:04:16.190Z,6.80
2023-02-03T20:06:45.213Z,6.70
2023-02-03T20:09:14.456Z,6.80
2023-02-03T20:11:41.590Z,6.80
2023-02-03T20:14:08.526Z,6.70
2023-02-03T20:16:35.868Z,6.70
2023-02-03T20:19:04.095Z,6.70
2023-02-03T20:21:33.169Z,6.80
2023-02-03T20:24:02.119Z,6.80
2023-02-03T20:26:28.988Z,6.70
2023-02-03T20:28:55.788Z,6.70
2023-02-03T20:31:22.802Z,6.70
2023-02-03T20:33:50.763Z,6.70
2023-02-03T20:36:17.662Z,6.70
2023-02-03T20:38:47.874Z,6.60
2023-02-03T20:41:17.365Z,6.70
2023-02-03T20:43:47.442Z,6.60
2023-02-03T20:46:17.235Z,6.60
2023-02-03T20:48:45.636Z,6.60
2023-02-03T20:51:18.222Z,6.70
2023-02-03T20:53:45.101Z,6.70
2023-02-03T20:56:16.754Z,6.70
2023-02-03T20:58:46.543Z,6.70
2023-02-03T21:01:21.751Z,6.70
2023-02-03T21:04:07.406Z,6.70
2023-02-03T21:06:35.201Z,6.70
2023-02-03T21:09:16.154Z,6.70
2023-02-03T21:11:43.928Z,6.70
2023-02-03T21:14:27.524Z,6.60
2023-02-03T21:16:54.843Z,6.70
2023-02-03T21:19:27.665Z,6.60
2023-02-03T21:21:56.962Z,6.70
2023-02-03T21:24:38.104Z,6.70
2023-02-03T21:27:23.339Z,6.70
2023-02-03T21:29:55.938Z,6.60
2023-02-03T21:32:30.913Z,6.60
2023-02-03T21:34:57.796Z,6.60
2023-02-03T21:37:38.154Z,6.60
2023-02-03T21:40:19.945Z,6.60
2023-02-03T21:42:49.300Z,6.70
2023-02-03T21:45:19.793Z,6.70
2023-02-03T21:47:51.028Z,6.80
2023-02-03T21:50:33.515Z,6.70
2023-02-03T21:53:10.252Z,6.80
2023-02-03T21:55:39.374Z,6.80
2023-02-03T21:58:29.060Z,6.80
2023-02-03T22:00:58.679Z,6.80
2023-02-03T22:03:43.234Z,6.80
2023-02-03T22:06:13.236Z,6.80
2023-02-03T22:08:45.604Z,6.80
2023-02-03T22:11:13.938Z,6.80
2023-02-03T22:13:41.229Z,6.80
2023-02-03T22:16:10.629Z,6.80
2023-02-03T22:18:39.091Z,6.80
2023-02-03T22:21:08.454Z,6.90
2023-02-03T22:23:38.024Z,6.90
2023-02-03T22:26:07.168Z,6.90
2023-02-03T22:28:34.666Z,6.90
2023-02-03T22:31:02.980Z,6.90
2023-02-03T22:33:30.457Z,6.90
2023-02-03T22:35:57.485Z,6.90
2023-02-03T22:38:26.751Z,6.90
2023-02-03T22:40:53.797Z,6.90
2023-02-03T22:43:23.235Z,6.90
2023-02-03T22:45:52.993Z,6.90
2023-02-03T22:48:20.642Z,6.90
2023-02-03T22:50:49.806Z,6.90
2023-02-03T22:53:16.744Z,6.90
2023-02-03T22:55:43.619Z,6.90
2023-02-03T22:58:12.883Z,6.80
2023-02-03T23:00:39.835Z,6.80
2023-02-03T23:03:06.858Z,6.80
2023-02-03T23:05:33.937Z,6.80
2023-02-03T23:08:03.524Z,6.90
2023-02-03T23:10:31.119Z,6.90
2023-02-03T23:13:00.752Z,6.80
2023-02-03T23:15:30.265Z,6.90
2023-02-03T23:17:59.514Z,6.90
2023-02-03T23:20:29.269Z,6.90
2023-02-03T23:22:58.528Z,6.90
2023-02-03T23:25:28.080Z,6.90
2023-02-03T23:27:57.217Z,6.80
2023-02-03T23:30:24.265Z,6.90
2023-02-03T23:32:51.160Z,6.80
2023-02-03T23:35:36.606Z,6.80
2023-02-03T23:38:04.019Z,6.80
2023-02-03T23:40:31.205Z,6.80
2023-02-03T23:42:58.408Z,6.80
2023-02-03T23:45:25.239Z,6.80
2023-02-03T23:47:52.074Z,6.70
2023-02-03T23:50:20.066Z,6.70
2023-02-03T23:52:49.918Z,6.80
2023-02-03T23:55:19.207Z,6.70
2023-02-03T23:57:48.222Z,6.80
